sensor_id;sensor_type;location;lat;lon;timestamp;P1;durP1;ratioP1;P2;durP2;ratioP2
36353;SDS011;22383;51.114;13.666;2024-02-28T00:02:23;339.52;;;47.13;;
36353;SDS011;22383;51.114;13.666;2024-02-28T00:04:50;457.98;;;52.50;;
36353;SDS011;22383;51.114;13.666;2024-02-28T00:07:17;421.25;;;50.28;;
36353;SDS011;22383;51.114;13.666;2024-02-28T00:09:45;472.30;;;52.67;;
36353;SDS011;22383;51.114;13.666;2024-02-28T00:12:13;515.75;;;55.47;;
36353;SDS011;22383;51.114;13.666;2024-02-28T00:14:42;484.10;;;52.67;;
36353;SDS011;22383;51.114;13.666;2024-02-28T00:17:09;443.33;;;51.42;;
36353;SDS011;22383;51.114;13.666;2024-02-28T00:19:36;436.52;;;49.35;;
36353;SDS011;22383;51.114;13.666;2024-02-28T00:22:03;369.90;;;47.15;;
36353;SDS011;22383;51.114;13.666;2024-02-28T00:24:30;323.63;;;41.83;;
36353;SDS011;22383;51.114;13.666;2024-02-28T00:26:58;210.25;;;38.30;;
36353;SDS011;22383;51.114;13.666;2024-02-28T00:29:25;350.10;;;41.40;;
36353;SDS011;22383;51.114;13.666;2024-02-28T00:31:52;260.75;;;38.17;;
36353;SDS011;22383;51.114;13.666;2024-02-28T00:34:19;259.70;;;38.88;;
36353;SDS011;22383;51.114;13.666;2024-02-28T00:36:46;320.13;;;42.95;;
36353;SDS011;22383;51.114;13.666;2024-02-28T00:39:22;195.07;;;37.90;;
36353;SDS011;22383;51.114;13.666;2024-02-28T00:41:50;205.27;;;39.70;;
36353;SDS011;22383;51.114;13.666;2024-02-28T00:44:17;174.73;;;34.38;;
36353;SDS011;22383;51.114;13.666;2024-02-28T00:46:44;134.68;;;32.55;;
36353;SDS011;22383;51.114;13.666;2024-02-28T00:49:11;133.05;;;30.75;;
36353;SDS011;22383;51.114;13.666;2024-02-28T00:51:38;165.88;;;33.45;;
36353;SDS011;22383;51.114;13.666;2024-02-28T00:54:06;115.63;;;29.67;;
36353;SDS011;22383;51.114;13.666;2024-02-28T00:56:33;124.18;;;31.08;;
36353;SDS011;22383;51.114;13.666;2024-02-28T00:59:00;184.57;;;32.70;;
36353;SDS011;22383;51.114;13.666;2024-02-28T01:01:28;132.38;;;28.90;;
36353;SDS011;22383;51.114;13.666;2024-02-28T01:03:55;146.48;;;31.17;;
36353;SDS011;22383;51.114;13.666;2024-02-28T01:06:22;154.63;;;32.28;;
36353;SDS011;22383;51.114;13.666;2024-02-28T01:08:49;183.88;;;31.17;;
36353;SDS011;22383;51.114;13.666;2024-02-28T01:11:17;155.48;;;30.83;;
36353;SDS011;22383;51.114;13.666;2024-02-28T01:13:44;160.25;;;33.90;;
36353;SDS011;22383;51.114;13.666;2024-02-28T01:16:11;146.40;;;29.48;;
36353;SDS011;22383;51.114;13.666;2024-02-28T01:18:38;150.98;;;31.73;;
36353;SDS011;22383;51.114;13.666;2024-02-28T01:21:05;170.00;;;31.13;;
36353;SDS011;22383;51.114;13.666;2024-02-28T01:23:32;186.60;;;33.35;;
36353;SDS011;22383;51.114;13.666;2024-02-28T01:25:59;184.73;;;33.00;;
36353;SDS011;22383;51.114;13.666;2024-02-28T01:28:30;235.45;;;32.25;;
36353;SDS011;22383;51.114;13.666;2024-02-28T01:30:57;167.05;;;33.72;;
36353;SDS011;22383;51.114;13.666;2024-02-28T01:33:25;154.32;;;31.40;;
36353;SDS011;22383;51.114;13.666;2024-02-28T01:35:52;186.02;;;32.33;;
36353;SDS011;22383;51.114;13.666;2024-02-28T01:38:21;218.30;;;32.22;;
36353;SDS011;22383;51.114;13.666;2024-02-28T01:40:49;218.43;;;33.22;;
36353;SDS011;22383;51.114;13.666;2024-02-28T01:43:16;219.02;;;34.45;;
36353;SDS011;22383;51.114;13.666;2024-02-28T01:45:44;264.42;;;36.10;;
36353;SDS011;22383;51.114;13.666;2024-02-28T01:48:11;249.30;;;32.72;;
36353;SDS011;22383;51.114;13.666;2024-02-28T01:50:39;317.35;;;37.95;;
36353;SDS011;22383;51.114;13.666;2024-02-28T01:53:06;157.23;;;30.58;;
36353;SDS011;22383;51.114;13.666;2024-02-28T01:55:35;187.02;;;33.60;;
36353;SDS011;22383;51.114;13.666;2024-02-28T01:58:03;356.92;;;37.13;;
36353;SDS011;22383;51.114;13.666;2024-02-28T02:00:33;217.32;;;32.80;;
36353;SDS011;22383;51.114;13.666;2024-02-28T02:05:29;167.60;;;34.78;;
36353;SDS011;22383;51.114;13.666;2024-02-28T02:07:59;262.20;;;35.13;;
36353;SDS011;22383;51.114;13.666;2024-02-28T02:10:27;391.33;;;39.42;;
36353;SDS011;22383;51.114;13.666;2024-02-28T02:12:55;427.98;;;49.08;;
36353;SDS011;22383;51.114;13.666;2024-02-28T02:15:22;492.70;;;50.33;;
36353;SDS011;22383;51.114;13.666;2024-02-28T02:17:49;218.05;;;38.50;;
36353;SDS011;22383;51.114;13.666;2024-02-28T02:20:16;239.43;;;35.45;;
36353;SDS011;22383;51.114;13.666;2024-02-28T02:22:47;205.05;;;33.97;;
36353;SDS011;22383;51.114;13.666;2024-02-28T02:25:14;313.13;;;37.05;;
36353;SDS011;22383;51.114;13.666;2024-02-28T02:27:42;196.07;;;34.05;;
36353;SDS011;22383;51.114;13.666;2024-02-28T02:30:09;244.63;;;36.30;;
36353;SDS011;22383;51.114;13.666;2024-02-28T02:35:04;123.95;;;30.73;;
36353;SDS011;22383;51.114;13.666;2024-02-28T02:37:32;199.55;;;33.38;;
36353;SDS011;22383;51.114;13.666;2024-02-28T02:39:59;169.23;;;35.35;;
36353;SDS011;22383;51.114;13.666;2024-02-28T02:42:26;280.40;;;39.47;;
36353;SDS011;22383;51.114;13.666;2024-02-28T02:44:53;176.73;;;33.20;;
36353;SDS011;22383;51.114;13.666;2024-02-28T02:47:20;247.25;;;32.60;;
36353;SDS011;22383;51.114;13.666;2024-02-28T02:49:48;312.45;;;36.78;;
36353;SDS011;22383;51.114;13.666;2024-02-28T02:52:15;287.92;;;37.58;;
36353;SDS011;22383;51.114;13.666;2024-02-28T02:54:42;375.60;;;41.58;;
36353;SDS011;22383;51.114;13.666;2024-02-28T02:57:09;425.35;;;44.00;;
36353;SDS011;22383;51.114;13.666;2024-02-28T02:59:36;451.38;;;43.50;;
36353;SDS011;22383;51.114;13.666;2024-02-28T03:02:03;475.13;;;47.90;;
36353;SDS011;22383;51.114;13.666;2024-02-28T03:04:31;570.70;;;54.25;;
36353;SDS011;22383;51.114;13.666;2024-02-28T03:06:58;454.13;;;41.75;;
36353;SDS011;22383;51.114;13.666;2024-02-28T03:09:25;309.98;;;36.53;;
36353;SDS011;22383;51.114;13.666;2024-02-28T03:11:52;131.38;;;25.58;;
36353;SDS011;22383;51.114;13.666;2024-02-28T03:14:19;149.48;;;26.83;;
36353;SDS011;22383;51.114;13.666;2024-02-28T03:16:48;209.38;;;28.50;;
36353;SDS011;22383;51.114;13.666;2024-02-28T03:19:16;237.77;;;31.70;;
36353;SDS011;22383;51.114;13.666;2024-02-28T03:21:43;344.10;;;37.67;;
36353;SDS011;22383;51.114;13.666;2024-02-28T03:24:10;334.85;;;33.90;;
36353;SDS011;22383;51.114;13.666;2024-02-28T03:26:37;407.70;;;43.38;;
36353;SDS011;22383;51.114;13.666;2024-02-28T03:29:04;433.00;;;41.03;;
36353;SDS011;22383;51.114;13.666;2024-02-28T03:31:32;340.13;;;35.65;;
36353;SDS011;22383;51.114;13.666;2024-02-28T03:33:59;401.75;;;43.50;;
36353;SDS011;22383;51.114;13.666;2024-02-28T03:36:27;469.08;;;42.38;;
36353;SDS011;22383;51.114;13.666;2024-02-28T03:38:55;493.42;;;46.60;;
36353;SDS011;22383;51.114;13.666;2024-02-28T03:41:22;561.83;;;52.78;;
36353;SDS011;22383;51.114;13.666;2024-02-28T03:43:49;449.55;;;42.20;;
36353;SDS011;22383;51.114;13.666;2024-02-28T03:46:17;482.35;;;42.17;;
36353;SDS011;22383;51.114;13.666;2024-02-28T03:48:44;487.23;;;44.78;;
36353;SDS011;22383;51.114;13.666;2024-02-28T03:51:11;406.30;;;39.75;;
36353;SDS011;22383;51.114;13.666;2024-02-28T03:53:38;406.13;;;38.72;;
36353;SDS011;22383;51.114;13.666;2024-02-28T03:56:07;377.15;;;38.53;;
36353;SDS011;22383;51.114;13.666;2024-02-28T03:58:35;507.70;;;43.20;;
36353;SDS011;22383;51.114;13.666;2024-02-28T04:03:29;479.65;;;40.50;;
36353;SDS011;22383;51.114;13.666;2024-02-28T04:05:56;342.13;;;37.15;;
36353;SDS011;22383;51.114;13.666;2024-02-28T04:08:23;256.80;;;29.75;;
36353;SDS011;22383;51.114;13.666;2024-02-28T04:10:50;222.93;;;27.42;;
36353;SDS011;22383;51.114;13.666;2024-02-28T04:13:18;212.85;;;30.08;;
36353;SDS011;22383;51.114;13.666;2024-02-28T04:15:45;307.48;;;31.10;;
36353;SDS011;22383;51.114;13.666;2024-02-28T04:18:13;419.90;;;40.20;;
36353;SDS011;22383;51.114;13.666;2024-02-28T04:20:40;521.30;;;47.28;;
36353;SDS011;22383;51.114;13.666;2024-02-28T04:23:07;422.25;;;40.10;;
36353;SDS011;22383;51.114;13.666;2024-02-28T04:25:35;445.45;;;39.58;;
36353;SDS011;22383;51.114;13.666;2024-02-28T04:28:02;483.67;;;43.10;;
36353;SDS011;22383;51.114;13.666;2024-02-28T04:30:30;473.20;;;41.90;;
36353;SDS011;22383;51.114;13.666;2024-02-28T04:32:57;767.88;;;65.50;;
36353;SDS011;22383;51.114;13.666;2024-02-28T04:35:24;740.13;;;62.33;;
36353;SDS011;22383;51.114;13.666;2024-02-28T04:37:51;548.95;;;47.38;;
36353;SDS011;22383;51.114;13.666;2024-02-28T04:40:18;811.42;;;62.60;;
36353;SDS011;22383;51.114;13.666;2024-02-28T04:42:45;950.15;;;79.25;;
36353;SDS011;22383;51.114;13.666;2024-02-28T04:45:12;908.60;;;74.05;;
36353;SDS011;22383;51.114;13.666;2024-02-28T04:47:40;772.13;;;62.25;;
36353;SDS011;22383;51.114;13.666;2024-02-28T04:50:11;771.42;;;67.10;;
36353;SDS011;22383;51.114;13.666;2024-02-28T04:52:38;713.20;;;58.00;;
36353;SDS011;22383;51.114;13.666;2024-02-28T04:55:06;492.55;;;41.67;;
36353;SDS011;22383;51.114;13.666;2024-02-28T04:57:33;549.17;;;49.67;;
36353;SDS011;22383;51.114;13.666;2024-02-28T05:02:27;404.00;;;34.75;;
36353;SDS011;22383;51.114;13.666;2024-02-28T05:04:55;544.88;;;47.97;;
36353;SDS011;22383;51.114;13.666;2024-02-28T05:07:22;585.97;;;47.45;;
36353;SDS011;22383;51.114;13.666;2024-02-28T05:09:49;568.90;;;42.50;;
36353;SDS011;22383;51.114;13.666;2024-02-28T05:12:16;761.60;;;63.00;;
36353;SDS011;22383;51.114;13.666;2024-02-28T05:14:43;473.88;;;44.38;;
36353;SDS011;22383;51.114;13.666;2024-02-28T05:17:12;445.98;;;36.78;;
36353;SDS011;22383;51.114;13.666;2024-02-28T05:19:39;657.63;;;50.53;;
36353;SDS011;22383;51.114;13.666;2024-02-28T05:22:07;535.55;;;51.65;;
36353;SDS011;22383;51.114;13.666;2024-02-28T05:24:34;538.05;;;47.60;;
36353;SDS011;22383;51.114;13.666;2024-02-28T05:29:29;667.80;;;55.47;;
36353;SDS011;22383;51.114;13.666;2024-02-28T05:34:24;643.00;;;54.40;;
36353;SDS011;22383;51.114;13.666;2024-02-28T05:36:51;550.30;;;53.15;;
36353;SDS011;22383;51.114;13.666;2024-02-28T05:39:18;520.22;;;47.50;;
36353;SDS011;22383;51.114;13.666;2024-02-28T05:41:45;610.10;;;50.20;;
36353;SDS011;22383;51.114;13.666;2024-02-28T05:44:12;810.30;;;68.57;;
36353;SDS011;22383;51.114;13.666;2024-02-28T05:46:39;575.22;;;48.63;;
36353;SDS011;22383;51.114;13.666;2024-02-28T05:49:06;478.40;;;40.70;;
36353;SDS011;22383;51.114;13.666;2024-02-28T05:54:02;268.15;;;32.88;;
36353;SDS011;22383;51.114;13.666;2024-02-28T05:56:30;386.50;;;37.15;;
36353;SDS011;22383;51.114;13.666;2024-02-28T05:58:57;473.77;;;41.90;;
36353;SDS011;22383;51.114;13.666;2024-02-28T06:01:24;255.45;;;34.70;;
36353;SDS011;22383;51.114;13.666;2024-02-28T06:03:52;563.72;;;52.08;;
36353;SDS011;22383;51.114;13.666;2024-02-28T06:06:19;414.10;;;45.00;;
36353;SDS011;22383;51.114;13.666;2024-02-28T06:08:46;658.95;;;58.03;;
36353;SDS011;22383;51.114;13.666;2024-02-28T06:11:13;553.40;;;49.88;;
36353;SDS011;22383;51.114;13.666;2024-02-28T06:13:41;664.08;;;55.80;;
36353;SDS011;22383;51.114;13.666;2024-02-28T06:16:13;711.75;;;62.28;;
36353;SDS011;22383;51.114;13.666;2024-02-28T06:18:42;684.55;;;63.40;;
36353;SDS011;22383;51.114;13.666;2024-02-28T06:21:09;649.22;;;58.08;;
36353;SDS011;22383;51.114;13.666;2024-02-28T06:23:36;842.75;;;74.45;;
36353;SDS011;22383;51.114;13.666;2024-02-28T06:26:03;591.08;;;53.67;;
36353;SDS011;22383;51.114;13.666;2024-02-28T06:28:31;703.03;;;57.78;;
36353;SDS011;22383;51.114;13.666;2024-02-28T06:30:59;776.13;;;66.38;;
36353;SDS011;22383;51.114;13.666;2024-02-28T06:33:26;736.10;;;62.33;;
36353;SDS011;22383;51.114;13.666;2024-02-28T06:35:54;723.55;;;64.00;;
36353;SDS011;22383;51.114;13.666;2024-02-28T06:38:21;580.35;;;53.88;;
36353;SDS011;22383;51.114;13.666;2024-02-28T06:40:48;615.13;;;54.70;;
36353;SDS011;22383;51.114;13.666;2024-02-28T06:43:15;591.88;;;54.92;;
36353;SDS011;22383;51.114;13.666;2024-02-28T06:48:10;719.70;;;63.38;;
36353;SDS011;22383;51.114;13.666;2024-02-28T06:50:37;606.67;;;57.75;;
36353;SDS011;22383;51.114;13.666;2024-02-28T06:53:04;619.80;;;54.88;;
36353;SDS011;22383;51.114;13.666;2024-02-28T06:55:31;832.92;;;74.47;;
36353;SDS011;22383;51.114;13.666;2024-02-28T06:57:58;643.67;;;57.85;;
36353;SDS011;22383;51.114;13.666;2024-02-28T07:00:26;813.08;;;68.50;;
36353;SDS011;22383;51.114;13.666;2024-02-28T07:02:53;547.83;;;52.33;;
36353;SDS011;22383;51.114;13.666;2024-02-28T07:05:21;671.03;;;66.35;;
36353;SDS011;22383;51.114;13.666;2024-02-28T07:07:49;737.88;;;62.92;;
36353;SDS011;22383;51.114;13.666;2024-02-28T07:10:16;440.83;;;38.40;;
36353;SDS011;22383;51.114;13.666;2024-02-28T07:12:43;471.95;;;40.70;;
36353;SDS011;22383;51.114;13.666;2024-02-28T07:15:10;351.38;;;36.92;;
36353;SDS011;22383;51.114;13.666;2024-02-28T07:17:37;529.70;;;45.17;;
36353;SDS011;22383;51.114;13.666;2024-02-28T07:20:04;337.33;;;35.13;;
36353;SDS011;22383;51.114;13.666;2024-02-28T07:22:33;538.97;;;40.58;;
36353;SDS011;22383;51.114;13.666;2024-02-28T07:25:01;599.50;;;50.70;;
36353;SDS011;22383;51.114;13.666;2024-02-28T07:27:28;520.30;;;48.83;;
36353;SDS011;22383;51.114;13.666;2024-02-28T07:29:55;610.25;;;48.83;;
36353;SDS011;22383;51.114;13.666;2024-02-28T07:32:22;671.88;;;59.78;;
36353;SDS011;22383;51.114;13.666;2024-02-28T07:34:50;667.75;;;62.15;;
36353;SDS011;22383;51.114;13.666;2024-02-28T07:37:17;717.50;;;60.38;;
36353;SDS011;22383;51.114;13.666;2024-02-28T07:39:44;708.65;;;61.25;;
36353;SDS011;22383;51.114;13.666;2024-02-28T07:42:11;810.10;;;62.67;;
36353;SDS011;22383;51.114;13.666;2024-02-28T07:44:38;877.90;;;69.30;;
36353;SDS011;22383;51.114;13.666;2024-02-28T07:47:06;767.45;;;61.50;;
36353;SDS011;22383;51.114;13.666;2024-02-28T07:49:33;571.22;;;49.78;;
36353;SDS011;22383;51.114;13.666;2024-02-28T07:52:00;505.35;;;47.10;;
36353;SDS011;22383;51.114;13.666;2024-02-28T07:54:28;533.50;;;48.20;;
36353;SDS011;22383;51.114;13.666;2024-02-28T07:56:55;595.28;;;52.90;;
36353;SDS011;22383;51.114;13.666;2024-02-28T07:59:22;456.67;;;46.65;;
36353;SDS011;22383;51.114;13.666;2024-02-28T08:01:49;493.63;;;44.38;;
36353;SDS011;22383;51.114;13.666;2024-02-28T08:04:17;594.05;;;50.47;;
36353;SDS011;22383;51.114;13.666;2024-02-28T08:06:44;426.38;;;40.17;;
36353;SDS011;22383;51.114;13.666;2024-02-28T08:09:11;330.35;;;35.28;;
36353;SDS011;22383;51.114;13.666;2024-02-28T08:11:39;386.02;;;37.00;;
36353;SDS011;22383;51.114;13.666;2024-02-28T08:14:07;479.30;;;42.45;;
36353;SDS011;22383;51.114;13.666;2024-02-28T08:16:34;245.55;;;35.08;;
36353;SDS011;22383;51.114;13.666;2024-02-28T08:19:01;485.00;;;47.90;;
36353;SDS011;22383;51.114;13.666;2024-02-28T08:21:28;511.33;;;48.75;;
36353;SDS011;22383;51.114;13.666;2024-02-28T08:23:56;438.80;;;43.63;;
36353;SDS011;22383;51.114;13.666;2024-02-28T08:26:25;545.40;;;44.15;;
36353;SDS011;22383;51.114;13.666;2024-02-28T08:28:52;467.77;;;40.33;;
36353;SDS011;22383;51.114;13.666;2024-02-28T08:31:19;296.83;;;33.08;;
36353;SDS011;22383;51.114;13.666;2024-02-28T08:33:46;394.13;;;38.70;;
36353;SDS011;22383;51.114;13.666;2024-02-28T08:36:13;482.20;;;42.05;;
36353;SDS011;22383;51.114;13.666;2024-02-28T08:38:42;515.78;;;47.58;;
36353;SDS011;22383;51.114;13.666;2024-02-28T08:41:09;137.52;;;26.90;;
36353;SDS011;22383;51.114;13.666;2024-02-28T08:43:39;140.95;;;28.10;;
36353;SDS011;22383;51.114;13.666;2024-02-28T08:46:07;143.30;;;27.33;;
36353;SDS011;22383;51.114;13.666;2024-02-28T08:48:34;124.65;;;26.73;;
36353;SDS011;22383;51.114;13.666;2024-02-28T08:51:02;136.43;;;27.20;;
36353;SDS011;22383;51.114;13.666;2024-02-28T08:53:29;123.80;;;27.15;;
36353;SDS011;22383;51.114;13.666;2024-02-28T08:55:56;110.00;;;24.10;;
36353;SDS011;22383;51.114;13.666;2024-02-28T08:58:23;106.38;;;25.25;;
36353;SDS011;22383;51.114;13.666;2024-02-28T09:00:50;106.82;;;25.83;;
36353;SDS011;22383;51.114;13.666;2024-02-28T09:03:18;113.65;;;26.27;;
36353;SDS011;22383;51.114;13.666;2024-02-28T09:05:46;109.75;;;24.63;;
36353;SDS011;22383;51.114;13.666;2024-02-28T09:08:14;113.35;;;28.70;;
36353;SDS011;22383;51.114;13.666;2024-02-28T09:10:41;96.10;;;25.25;;
36353;SDS011;22383;51.114;13.666;2024-02-28T09:13:08;112.15;;;26.20;;
36353;SDS011;22383;51.114;13.666;2024-02-28T09:15:37;95.57;;;25.73;;
36353;SDS011;22383;51.114;13.666;2024-02-28T09:18:04;86.50;;;22.98;;
36353;SDS011;22383;51.114;13.666;2024-02-28T09:20:31;83.43;;;22.15;;
36353;SDS011;22383;51.114;13.666;2024-02-28T09:22:59;66.60;;;21.48;;
36353;SDS011;22383;51.114;13.666;2024-02-28T09:25:26;71.28;;;21.58;;
36353;SDS011;22383;51.114;13.666;2024-02-28T09:27:55;69.95;;;19.85;;
36353;SDS011;22383;51.114;13.666;2024-02-28T09:30:22;75.53;;;21.63;;
36353;SDS011;22383;51.114;13.666;2024-02-28T09:32:56;70.10;;;21.02;;
36353;SDS011;22383;51.114;13.666;2024-02-28T09:35:23;64.90;;;19.88;;
36353;SDS011;22383;51.114;13.666;2024-02-28T09:37:50;63.25;;;19.08;;
36353;SDS011;22383;51.114;13.666;2024-02-28T09:40:17;57.80;;;18.63;;
36353;SDS011;22383;51.114;13.666;2024-02-28T09:45:18;53.78;;;17.77;;
36353;SDS011;22383;51.114;13.666;2024-02-28T09:47:48;52.53;;;18.48;;
36353;SDS011;22383;51.114;13.666;2024-02-28T09:50:15;61.47;;;18.55;;
36353;SDS011;22383;51.114;13.666;2024-02-28T09:52:46;59.90;;;20.63;;
36353;SDS011;22383;51.114;13.666;2024-02-28T09:55:27;64.78;;;22.23;;
36353;SDS011;22383;51.114;13.666;2024-02-28T09:57:54;71.60;;;23.52;;
36353;SDS011;22383;51.114;13.666;2024-02-28T10:00:23;68.72;;;21.75;;
36353;SDS011;22383;51.114;13.666;2024-02-28T10:02:52;67.05;;;22.48;;
36353;SDS011;22383;51.114;13.666;2024-02-28T10:05:20;77.75;;;21.98;;
36353;SDS011;22383;51.114;13.666;2024-02-28T10:07:49;67.85;;;22.25;;
36353;SDS011;22383;51.114;13.666;2024-02-28T10:10:16;83.85;;;23.95;;
36353;SDS011;22383;51.114;13.666;2024-02-28T10:12:44;81.38;;;23.60;;
36353;SDS011;22383;51.114;13.666;2024-02-28T10:15:11;76.43;;;22.63;;
36353;SDS011;22383;51.114;13.666;2024-02-28T10:17:39;72.00;;;22.23;;
36353;SDS011;22383;51.114;13.666;2024-02-28T10:20:06;70.53;;;23.13;;
36353;SDS011;22383;51.114;13.666;2024-02-28T10:22:37;60.08;;;22.55;;
36353;SDS011;22383;51.114;13.666;2024-02-28T10:25:04;81.30;;;23.92;;
36353;SDS011;22383;51.114;13.666;2024-02-28T10:30:01;81.68;;;24.48;;
36353;SDS011;22383;51.114;13.666;2024-02-28T10:32:34;83.70;;;24.52;;
36353;SDS011;22383;51.114;13.666;2024-02-28T10:35:03;79.93;;;25.27;;
36353;SDS011;22383;51.114;13.666;2024-02-28T10:37:30;89.35;;;27.17;;
36353;SDS011;22383;51.114;13.666;2024-02-28T10:39:59;78.50;;;24.00;;
36353;SDS011;22383;51.114;13.666;2024-02-28T10:42:29;72.35;;;23.67;;
36353;SDS011;22383;51.114;13.666;2024-02-28T10:45:00;74.00;;;24.60;;
36353;SDS011;22383;51.114;13.666;2024-02-28T10:47:46;74.70;;;25.95;;
36353;SDS011;22383;51.114;13.666;2024-02-28T10:50:17;79.38;;;24.38;;
36353;SDS011;22383;51.114;13.666;2024-02-28T10:52:45;82.93;;;24.00;;
36353;SDS011;22383;51.114;13.666;2024-02-28T10:55:20;81.63;;;27.80;;
36353;SDS011;22383;51.114;13.666;2024-02-28T10:57:53;83.07;;;25.90;;
36353;SDS011;22383;51.114;13.666;2024-02-28T11:00:25;70.70;;;23.40;;
36353;SDS011;22383;51.114;13.666;2024-02-28T11:02:52;79.10;;;24.70;;
36353;SDS011;22383;51.114;13.666;2024-02-28T11:05:20;69.65;;;23.50;;
36353;SDS011;22383;51.114;13.666;2024-02-28T11:07:50;71.95;;;23.70;;
36353;SDS011;22383;51.114;13.666;2024-02-28T11:10:22;71.57;;;25.73;;
36353;SDS011;22383;51.114;13.666;2024-02-28T11:12:56;81.65;;;25.17;;
36353;SDS011;22383;51.114;13.666;2024-02-28T11:15:24;77.75;;;25.48;;
36353;SDS011;22383;51.114;13.666;2024-02-28T11:17:52;71.20;;;22.52;;
36353;SDS011;22383;51.114;13.666;2024-02-28T11:20:19;74.30;;;26.00;;
36353;SDS011;22383;51.114;13.666;2024-02-28T11:22:46;60.90;;;19.55;;
36353;SDS011;22383;51.114;13.666;2024-02-28T11:25:14;72.68;;;24.10;;
36353;SDS011;22383;51.114;13.666;2024-02-28T11:27:45;64.68;;;22.88;;
36353;SDS011;22383;51.114;13.666;2024-02-28T11:30:13;56.60;;;20.85;;
36353;SDS011;22383;51.114;13.666;2024-02-28T11:37:38;58.17;;;20.52;;
36353;SDS011;22383;51.114;13.666;2024-02-28T11:40:09;63.78;;;22.35;;
36353;SDS011;22383;51.114;13.666;2024-02-28T11:42:37;52.40;;;20.42;;
36353;SDS011;22383;51.114;13.666;2024-02-28T11:45:05;71.18;;;23.08;;
36353;SDS011;22383;51.114;13.666;2024-02-28T11:47:32;71.32;;;21.58;;
36353;SDS011;22383;51.114;13.666;2024-02-28T11:50:02;60.38;;;21.17;;
36353;SDS011;22383;51.114;13.666;2024-02-28T11:52:34;71.55;;;23.80;;
36353;SDS011;22383;51.114;13.666;2024-02-28T11:55:01;84.45;;;26.13;;
36353;SDS011;22383;51.114;13.666;2024-02-28T11:57:29;74.90;;;25.33;;
36353;SDS011;22383;51.114;13.666;2024-02-28T12:00:04;77.55;;;25.80;;
36353;SDS011;22383;51.114;13.666;2024-02-28T12:02:36;81.75;;;27.77;;
36353;SDS011;22383;51.114;13.666;2024-02-28T12:05:03;75.53;;;26.13;;
36353;SDS011;22383;51.114;13.666;2024-02-28T12:07:31;83.47;;;27.65;;
36353;SDS011;22383;51.114;13.666;2024-02-28T12:09:59;86.85;;;29.77;;
36353;SDS011;22383;51.114;13.666;2024-02-28T12:12:27;67.22;;;25.23;;
36353;SDS011;22383;51.114;13.666;2024-02-28T12:14:58;76.75;;;26.52;;
36353;SDS011;22383;51.114;13.666;2024-02-28T12:17:26;65.70;;;24.42;;
36353;SDS011;22383;51.114;13.666;2024-02-28T12:19:53;77.80;;;25.60;;
36353;SDS011;22383;51.114;13.666;2024-02-28T12:22:22;70.22;;;26.15;;
36353;SDS011;22383;51.114;13.666;2024-02-28T12:24:49;67.75;;;24.00;;
36353;SDS011;22383;51.114;13.666;2024-02-28T12:27:16;67.53;;;25.33;;
36353;SDS011;22383;51.114;13.666;2024-02-28T12:29:44;59.40;;;23.05;;
36353;SDS011;22383;51.114;13.666;2024-02-28T12:32:12;63.92;;;25.40;;
36353;SDS011;22383;51.114;13.666;2024-02-28T12:34:39;63.90;;;25.02;;
36353;SDS011;22383;51.114;13.666;2024-02-28T12:37:06;61.17;;;22.80;;
36353;SDS011;22383;51.114;13.666;2024-02-28T12:39:34;61.70;;;22.98;;
36353;SDS011;22383;51.114;13.666;2024-02-28T12:42:02;57.40;;;22.08;;
36353;SDS011;22383;51.114;13.666;2024-02-28T12:44:29;60.75;;;22.30;;
36353;SDS011;22383;51.114;13.666;2024-02-28T12:46:57;64.55;;;23.10;;
36353;SDS011;22383;51.114;13.666;2024-02-28T12:49:24;57.63;;;21.85;;
36353;SDS011;22383;51.114;13.666;2024-02-28T12:51:51;55.72;;;22.23;;
36353;SDS011;22383;51.114;13.666;2024-02-28T12:54:19;59.53;;;21.25;;
36353;SDS011;22383;51.114;13.666;2024-02-28T12:56:48;68.53;;;23.40;;
36353;SDS011;22383;51.114;13.666;2024-02-28T12:59:16;52.05;;;20.30;;
36353;SDS011;22383;51.114;13.666;2024-02-28T13:01:43;53.10;;;20.58;;
36353;SDS011;22383;51.114;13.666;2024-02-28T13:06:38;44.83;;;18.25;;
36353;SDS011;22383;51.114;13.666;2024-02-28T13:09:06;46.55;;;19.70;;
36353;SDS011;22383;51.114;13.666;2024-02-28T13:11:39;45.38;;;18.90;;
36353;SDS011;22383;51.114;13.666;2024-02-28T13:14:07;46.15;;;19.55;;
36353;SDS011;22383;51.114;13.666;2024-02-28T13:16:36;60.50;;;23.08;;
36353;SDS011;22383;51.114;13.666;2024-02-28T13:19:04;56.00;;;22.98;;
36353;SDS011;22383;51.114;13.666;2024-02-28T13:21:32;47.22;;;20.83;;
36353;SDS011;22383;51.114;13.666;2024-02-28T13:24:02;49.75;;;20.77;;
36353;SDS011;22383;51.114;13.666;2024-02-28T13:26:30;50.20;;;20.15;;
36353;SDS011;22383;51.114;13.666;2024-02-28T13:28:57;54.13;;;22.38;;
36353;SDS011;22383;51.114;13.666;2024-02-28T13:31:24;53.42;;;20.65;;
36353;SDS011;22383;51.114;13.666;2024-02-28T13:33:51;57.70;;;22.65;;
36353;SDS011;22383;51.114;13.666;2024-02-28T13:36:18;52.20;;;22.50;;
36353;SDS011;22383;51.114;13.666;2024-02-28T13:41:13;53.17;;;22.05;;
36353;SDS011;22383;51.114;13.666;2024-02-28T13:43:40;51.30;;;23.30;;
36353;SDS011;22383;51.114;13.666;2024-02-28T13:46:07;60.97;;;26.75;;
36353;SDS011;22383;51.114;13.666;2024-02-28T13:48:36;60.80;;;24.23;;
36353;SDS011;22383;51.114;13.666;2024-02-28T13:51:04;61.97;;;25.10;;
36353;SDS011;22383;51.114;13.666;2024-02-28T13:55:59;58.13;;;24.50;;
36353;SDS011;22383;51.114;13.666;2024-02-28T14:01:05;57.75;;;24.13;;
36353;SDS011;22383;51.114;13.666;2024-02-28T14:03:34;66.70;;;27.33;;
36353;SDS011;22383;51.114;13.666;2024-02-28T14:06:01;70.45;;;29.60;;
36353;SDS011;22383;51.114;13.666;2024-02-28T14:08:29;64.85;;;28.50;;
36353;SDS011;22383;51.114;13.666;2024-02-28T14:11:02;65.35;;;29.67;;
36353;SDS011;22383;51.114;13.666;2024-02-28T14:13:29;73.20;;;30.55;;
36353;SDS011;22383;51.114;13.666;2024-02-28T14:18:24;64.45;;;27.73;;
36353;SDS011;22383;51.114;13.666;2024-02-28T14:20:51;55.75;;;26.58;;
36353;SDS011;22383;51.114;13.666;2024-02-28T14:23:18;60.85;;;26.40;;
36353;SDS011;22383;51.114;13.666;2024-02-28T14:30:42;61.03;;;26.08;;
36353;SDS011;22383;51.114;13.666;2024-02-28T14:33:09;61.28;;;28.13;;
36353;SDS011;22383;51.114;13.666;2024-02-28T14:35:40;64.93;;;28.88;;
36353;SDS011;22383;51.114;13.666;2024-02-28T14:38:08;62.00;;;28.60;;
36353;SDS011;22383;51.114;13.666;2024-02-28T14:40:36;61.30;;;29.98;;
36353;SDS011;22383;51.114;13.666;2024-02-28T14:43:03;63.88;;;30.80;;
36353;SDS011;22383;51.114;13.666;2024-02-28T14:45:30;59.00;;;27.75;;
36353;SDS011;22383;51.114;13.666;2024-02-28T14:47:59;62.67;;;28.70;;
36353;SDS011;22383;51.114;13.666;2024-02-28T14:50:26;61.42;;;28.17;;
36353;SDS011;22383;51.114;13.666;2024-02-28T14:52:53;56.65;;;27.70;;